createdAt,value
2023-03-20T00:02:18.279Z,10.40
2023-03-20T00:04:45.587Z,10.30
2023-03-20T00:07:12.712Z,10.30
2023-03-20T00:09:39.905Z,10.30
2023-03-20T00:12:07.382Z,10.40
2023-03-20T00:14:35.021Z,10.30
2023-03-20T00:17:02.175Z,10.40
2023-03-20T00:19:30.969Z,10.40
2023-03-20T00:21:58.529Z,10.40
2023-03-20T00:24:25.774Z,10.50
2023-03-20T00:26:54.217Z,10.50
2023-03-20T00:29:31.203Z,10.50
2023-03-20T00:31:59.289Z,10.40
2023-03-20T00:34:32.235Z,10.40
2023-03-20T00:37:00.081Z,10.40
2023-03-20T00:39:29.845Z,10.40
2023-03-20T00:42:03.619Z,10.50
2023-03-20T00:44:42.392Z,10.40
2023-03-20T00:47:24.365Z,10.50
2023-03-20T00:49:54.328Z,10.50
2023-03-20T00:52:22.294Z,10.50
2023-03-20T00:54:51.726Z,10.50
2023-03-20T00:57:26.520Z,10.50
2023-03-20T01:00:14.976Z,10.50
2023-03-20T01:02:41.933Z,10.50
2023-03-20T01:05:09.084Z,10.50
2023-03-20T01:07:36.637Z,10.50
2023-03-20T01:10:04.619Z,10.50
2023-03-20T01:12:31.657Z,10.50
2023-03-20T01:14:58.983Z,10.50
2023-03-20T01:17:27.853Z,10.60
2023-03-20T01:19:56.000Z,10.60
2023-03-20T01:22:23.485Z,10.60
2023-03-20T01:24:50.374Z,10.60
2023-03-20T01:27:19.475Z,10.50
2023-03-20T01:29:46.893Z,10.50
2023-03-20T01:32:19.582Z,10.50
2023-03-20T01:34:49.602Z,10.50
2023-03-20T01:37:34.855Z,10.50
2023-03-20T01:40:04.004Z,10.50
2023-03-20T01:42:33.470Z,10.50
2023-03-20T01:45:00.472Z,10.40
2023-03-20T01:47:29.736Z,10.30
2023-03-20T01:50:30.238Z,10.30
2023-03-20T01:53:11.338Z,10.30
2023-03-20T01:55:44.752Z,10.30
2023-03-20T01:58:21.385Z,10.20
2023-03-20T02:00:49.326Z,10.20
2023-03-20T02:03:19.560Z,10.20
2023-03-20T02:06:06.602Z,10.20
2023-03-20T02:09:12.738Z,10.20
2023-03-20T02:11:45.508Z,10.30
2023-03-20T02:14:14.178Z,10.40
2023-03-20T02:16:52.615Z,10.40
2023-03-20T02:19:58.461Z,10.50
2023-03-20T02:22:37.904Z,10.50
2023-03-20T02:25:46.706Z,10.50
2023-03-20T02:28:37.451Z,10.60
2023-03-20T02:31:27.494Z,10.60
2023-03-20T02:34:27.366Z,10.60
2023-03-20T02:37:13.147Z,10.60
2023-03-20T02:40:16.757Z,10.60
2023-03-20T02:43:14.940Z,10.50
2023-03-20T02:45:59.683Z,10.50
2023-03-20T02:48:30.647Z,10.50
2023-03-20T02:51:16.605Z,10.50
2023-03-20T02:54:07.395Z,10.60
2023-03-20T02:57:04.283Z,10.60
2023-03-20T02:59:43.859Z,10.60
2023-03-20T03:02:24.491Z,10.60
2023-03-20T03:05:01.083Z,10.60
2023-03-20T03:07:32.845Z,10.60
2023-03-20T03:10:11.607Z,10.60
2023-03-20T03:12:43.424Z,10.60
2023-03-20T03:15:34.735Z,10.60
2023-03-20T03:18:06.495Z,10.60
2023-03-20T03:20:39.373Z,10.60
2023-03-20T03:23:06.812Z,10.60
2023-03-20T03:25:40.896Z,10.60
2023-03-20T03:28:37.178Z,10.60
2023-03-20T03:31:07.425Z,10.60
2023-03-20T03:33:39.467Z,10.60
2023-03-20T03:36:31.378Z,10.60
2023-03-20T03:39:01.348Z,10.60
2023-03-20T03:41:46.206Z,10.60
2023-03-20T03:44:36.878Z,10.60
2023-03-20T03:47:35.596Z,10.60
2023-03-20T03:50:19.002Z,10.60
2023-03-20T03:52:49.585Z,10.60
2023-03-20T03:55:25.016Z,10.60
2023-03-20T03:58:10.190Z,10.60
2023-03-20T04:00:40.365Z,10.60
2023-03-20T04:03:07.828Z,10.60
2023-03-20T04:05:37.679Z,10.60
2023-03-20T04:08:06.345Z,10.60
2023-03-20T04:10:33.505Z,10.60
2023-03-20T04:13:00.544Z,10.60
2023-03-20T04:15:28.367Z,10.60
2023-03-20T04:17:56.124Z,10.60
2023-03-20T04:20:23.562Z,10.60
2023-03-20T04:22:50.966Z,10.60
2023-03-20T04:25:24.462Z,10.60
2023-03-20T04:27:53.950Z,10.60
2023-03-20T04:31:01.592Z,10.60
2023-03-20T04:33:42.468Z,10.60
2023-03-20T04:36:22.721Z,10.60
2023-03-20T04:38:52.201Z,10.50
2023-03-20T04:41:21.199Z,10.60
2023-03-20T04:43:52.245Z,10.60
2023-03-20T04:46:19.275Z,10.60
2023-03-20T04:48:46.477Z,10.50
2023-03-20T04:51:13.508Z,10.60
2023-03-20T04:53:45.848Z,10.50
2023-03-20T04:56:13.069Z,10.50
2023-03-20T04:58:40.781Z,10.60
2023-03-20T05:01:08.922Z,10.60
2023-03-20T05:03:35.889Z,10.60
2023-03-20T05:06:03.271Z,10.60
2023-03-20T05:08:30.782Z,10.60
2023-03-20T05:11:00.449Z,10.60
2023-03-20T05:13:53.125Z,10.60
2023-03-20T05:16:40.560Z,10.60
2023-03-20T05:19:19.696Z,10.60
2023-03-20T05:21:57.782Z,10.60
2023-03-20T05:24:45.329Z,10.60
2023-03-20T05:27:28.387Z,10.60
2023-03-20T05:30:22.207Z,10.60
2023-03-20T05:33:08.238Z,10.50
2023-03-20T05:35:53.822Z,10.50
2023-03-20T05:38:39.442Z,10.50
2023-03-20T05:41:29.639Z,10.50
2023-03-20T05:44:08.598Z,10.50
2023-03-20T05:46:57.495Z,10.50
2023-03-20T05:50:21.031Z,10.50
2023-03-20T05:56:40.550Z,10.40
2023-03-20T05:59:28.569Z,10.40
2023-03-20T06:02:18.949Z,10.40
2023-03-20T06:11:06.542Z,10.50
2023-03-20T06:17:18.711Z,10.60
2023-03-20T06:20:23.746Z,10.60
2023-03-20T06:22:53.144Z,10.60
2023-03-20T06:25:20.617Z,10.60
2023-03-20T06:27:48.217Z,10.60
2023-03-20T06:30:16.164Z,10.70
2023-03-20T06:32:44.349Z,10.80
2023-03-20T06:35:13.705Z,10.80
2023-03-20T06:37:45.066Z,10.90
2023-03-20T06:40:16.920Z,10.90
2023-03-20T06:42:44.007Z,11.00
2023-03-20T06:45:12.345Z,11.10
2023-03-20T06:47:39.731Z,11.10
2023-03-20T06:50:09.060Z,11.20
2023-03-20T06:52:36.320Z,11.30
2023-03-20T06:55:20.480Z,11.30
2023-03-20T06:57:48.037Z,11.50
2023-03-20T07:00:17.873Z,11.50
2023-03-20T07:02:45.322Z,11.50
2023-03-20T07:05:15.998Z,11.50
2023-03-20T07:07:43.262Z,11.50
2023-03-20T07:10:12.400Z,11.50
2023-03-20T07:12:39.886Z,11.50
2023-03-20T07:15:07.282Z,11.50
2023-03-20T07:17:34.486Z,11.50
2023-03-20T07:20:01.937Z,11.50
2023-03-20T07:22:30.534Z,11.50
2023-03-20T07:25:15.864Z,11.50
2023-03-20T07:27:46.623Z,11.40
2023-03-20T07:30:13.804Z,11.40
2023-03-20T07:32:41.016Z,11.50
2023-03-20T07:35:09.298Z,11.40
2023-03-20T07:37:36.597Z,11.40
2023-03-20T07:40:05.342Z,11.30
2023-03-20T07:42:55.396Z,11.30
2023-03-20T07:45:51.662Z,11.30
2023-03-20T07:48:20.056Z,11.40
2023-03-20T07:50:46.994Z,11.40
2023-03-20T07:53:14.039Z,11.50
2023-03-20T07:55:41.159Z,11.60
2023-03-20T07:58:10.664Z,11.60
2023-03-20T08:00:37.786Z,11.70
2023-03-20T08:03:04.869Z,11.70
2023-03-20T08:05:32.133Z,11.80
2023-03-20T08:07:59.669Z,11.90
2023-03-20T08:10:26.974Z,12.00
2023-03-20T08:12:54.652Z,12.10
2023-03-20T08:15:22.304Z,12.20
2023-03-20T08:17:49.284Z,12.40
2023-03-20T08:20:17.406Z,12.50
2023-03-20T08:22:45.322Z,12.40
2023-03-20T08:25:12.352Z,12.50
2023-03-20T08:27:39.370Z,12.70
2023-03-20T08:30:07.123Z,12.90
2023-03-20T08:32:34.123Z,13.10
2023-03-20T08:35:01.175Z,13.30
2023-03-20T08:37:28.456Z,13.50
2023-03-20T08:39:55.603Z,13.70
2023-03-20T08:42:23.015Z,13.80
2023-03-20T08:44:50.028Z,13.90
2023-03-20T08:47:17.404Z,14.00
2023-03-20T08:49:44.424Z,14.00
2023-03-20T08:52:11.523Z,14.00
2023-03-20T08:54:38.477Z,14.10
2023-03-20T08:57:05.423Z,14.10
2023-03-20T08:59:33.077Z,14.10
2023-03-20T09:02:00.167Z,14.10
2023-03-20T09:04:27.996Z,14.00
2023-03-20T09:06:56.108Z,14.00
2023-03-20T09:09:29.855Z,14.00
2023-03-20T09:11:58.011Z,14.00
2023-03-20T09:14:26.100Z,14.20
2023-03-20T09:16:53.530Z,14.20
2023-03-20T09:19:20.617Z,14.40
2023-03-20T09:21:50.428Z,14.40
2023-03-20T09:24:17.348Z,14.30
2023-03-20T09:26:44.309Z,14.10
2023-03-20T09:29:11.903Z,14.00
2023-03-20T09:31:40.198Z,14.00
2023-03-20T09:34:07.172Z,14.10
2023-03-20T09:36:35.301Z,14.10
2023-03-20T09:39:04.780Z,14.20
2023-03-20T09:41:45.820Z,14.50
2023-03-20T09:44:42.734Z,14.80
2023-03-20T09:47:34.526Z,15.20
2023-03-20T09:50:36.181Z,15.40
2023-03-20T09:53:12.011Z,15.50
2023-03-20T09:55:42.910Z,15.50
2023-03-20T09:58:10.224Z,15.40
2023-03-20T10:00:38.072Z,15.40
2023-03-20T10:03:08.253Z,15.40
2023-03-20T10:05:57.845Z,15.30
2023-03-20T10:08:34.870Z,15.20
2023-03-20T10:11:23.600Z,15.00
2023-03-20T10:13:56.825Z,14.90
2023-03-20T10:16:36.024Z,14.70
2023-03-20T10:19:21.221Z,14.90
2023-03-20T10:21:53.965Z,15.20
2023-03-20T10:24:48.089Z,15.30
2023-03-20T10:27:29.078Z,15.40
2023-03-20T10:30:29.183Z,15.60
2023-03-20T10:33:18.928Z,15.70
2023-03-20T10:36:02.777Z,15.80
2023-03-20T10:38:38.643Z,16.00
2023-03-20T10:41:13.811Z,16.20
2023-03-20T10:43:43.471Z,16.30
2023-03-20T10:46:13.549Z,16.40
2023-03-20T10:48:58.979Z,16.60
2023-03-20T10:51:40.936Z,16.70
2023-03-20T10:54:25.255Z,16.90
2023-03-20T10:56:56.310Z,16.90
2023-03-20T10:59:32.738Z,16.90
2023-03-20T11:01:59.661Z,16.60
2023-03-20T11:04:27.815Z,16.50
2023-03-20T11:07:01.123Z,16.40
2023-03-20T11:09:29.890Z,16.40
2023-03-20T11:11:59.149Z,16.40
2023-03-20T11:14:33.479Z,16.30
2023-03-20T11:17:04.206Z,16.20
2023-03-20T11:19:39.874Z,16.20
2023-03-20T11:22:26.499Z,16.20
2023-03-20T11:25:02.900Z,15.90
2023-03-20T11:27:33.130Z,15.90
2023-03-20T11:30:06.178Z,15.90
2023-03-20T11:32:33.062Z,16.00
2023-03-20T11:35:25.891Z,16.30
2023-03-20T11:37:55.997Z,16.40
2023-03-20T11:40:41.296Z,16.50
2023-03-20T11:43:21.751Z,16.40
2023-03-20T11:45:54.465Z,16.40
2023-03-20T11:48:25.796Z,16.20
2023-03-20T11:51:06.757Z,16.30
2023-03-20T11:53:48.250Z,16.40
2023-03-20T11:56:26.116Z,16.50
2023-03-20T11:59:15.579Z,16.70
2023-03-20T12:01:47.303Z,16.80
2023-03-20T12:04:20.593Z,17.10
2023-03-20T12:07:13.981Z,17.50
2023-03-20T12:09:50.482Z,17.80
2023-03-20T12:12:20.149Z,18.10
2023-03-20T12:15:02.078Z,18.30
2023-03-20T12:17:47.076Z,18.50
2023-03-20T12:20:25.218Z,18.90
2023-03-20T12:23:09.459Z,19.10
2023-03-20T12:25:42.418Z,19.00
2023-03-20T12:28:25.698Z,18.80
2023-03-20T12:31:17.515Z,18.60
2023-03-20T12:33:57.191Z,18.40
2023-03-20T12:36:37.297Z,18.20
2023-03-20T12:39:07.121Z,17.90
2023-03-20T12:41:43.706Z,17.70
2023-03-20T12:44:35.651Z,17.50
2023-03-20T12:47:02.697Z,17.30
2023-03-20T12:49:32.674Z,17.30
2023-03-20T12:52:18.897Z,17.40
2023-03-20T12:55:07.425Z,17.40
2023-03-20T12:57:39.529Z,17.10
2023-03-20T13:00:27.618Z,16.90
2023-03-20T13:03:32.330Z,16.80
2023-03-20T13:06:15.025Z,16.80
2023-03-20T13:09:06.849Z,16.90
2023-03-20T13:11:51.778Z,17.20
2023-03-20T13:14:38.385Z,17.60
2023-03-20T13:17:23.878Z,18.10
2023-03-20T13:19:56.749Z,18.70
2023-03-20T13:22:40.866Z,19.40
2023-03-20T13:25:35.306Z,20.40
2023-03-20T13:28:25.617Z,21.30
2023-03-20T13:31:05.280Z,21.50
2023-03-20T13:33:52.389Z,21.40
2023-03-20T13:36:44.285Z,20.90
2023-03-20T13:39:35.345Z,20.40
2023-03-20T13:42:06.617Z,20.20
2023-03-20T13:44:34.972Z,20.00
2023-03-20T13:47:08.778Z,19.80
2023-03-20T13:50:09.935Z,19.50
2023-03-20T13:52:45.196Z,19.30
2023-03-20T13:55:31.022Z,19.30
2023-03-20T13:58:24.329Z,19.20
2023-03-20T14:01:03.200Z,19.10
2023-03-20T14:03:39.781Z,19.10
2023-03-20T14:06:19.051Z,18.90
2023-03-20T14:08:54.348Z,18.80
2023-03-20T14:11:21.388Z,18.50
2023-03-20T14:13:57.763Z,18.20
2023-03-20T14:16:29.018Z,18.10
2023-03-20T14:19:23.257Z,18.00
2023-03-20T14:21:56.101Z,17.70
2023-03-20T14:24:26.627Z,17.50
2023-03-20T14:26:57.906Z,17.40
2023-03-20T14:29:35.883Z,17.40
2023-03-20T14:32:13.964Z,17.40
2023-03-20T14:34:48.401Z,17.50
2023-03-20T14:37:39.849Z,17.60
2023-03-20T14:40:17.600Z,17.60
2023-03-20T14:43:26.538Z,17.60
2023-03-20T14:46:27.408Z,17.70
2023-03-20T14:48:56.463Z,17.90
2023-03-20T14:51:41.704Z,18.10
2023-03-20T14:54:28.584Z,18.20
2023-03-20T14:57:07.424Z,18.20
2023-03-20T14:59:34.425Z,18.20
2023-03-20T15:02:03.153Z,18.70
2023-03-20T15:04:38.292Z,19.40
2023-03-20T15:07:15.785Z,19.90
2023-03-20T15:09:46.836Z,20.30
2023-03-20T15:12:17.695Z,20.90
2023-03-20T15:14:52.092Z,21.60
2023-03-20T15:17:38.817Z,22.40
2023-03-20T15:20:23.332Z,23.20
2023-03-20T15:22:53.018Z,23.50
2023-03-20T15:25:22.537Z,23.50
2023-03-20T15:27:51.872Z,23.50
2023-03-20T15:30:21.128Z,23.30
2023-03-20T15:32:50.456Z,23.20
2023-03-20T15:35:21.086Z,23.60
2023-03-20T15:37:50.626Z,24.10
2023-03-20T15:40:40.196Z,24.60
2023-03-20T15:43:28.585Z,25.20
2023-03-20T15:46:16.896Z,25.30
2023-03-20T15:48:51.308Z,25.30
2023-03-20T15:51:21.436Z,25.60
2023-03-20T15:53:51.441Z,25.90
2023-03-20T15:56:20.145Z,25.70
2023-03-20T15:58:50.114Z,25.10
2023-03-20T16:01:22.668Z,24.60
2023-03-20T16:03:51.295Z,24.40
2023-03-20T16:06:22.050Z,24.50
2023-03-20T16:09:06.025Z,24.90
2023-03-20T16:11:42.813Z,25.20
2023-03-20T16:14:21.392Z,25.40
2023-03-20T16:16:51.115Z,25.60
2023-03-20T16:19:18.725Z,25.50
2023-03-20T16:21:55.900Z,25.30
2023-03-20T16:24:45.927Z,24.90
2023-03-20T16:27:20.487Z,24.50
2023-03-20T16:29:51.662Z,24.10
2023-03-20T16:32:28.799Z,23.60
2023-03-20T16:34:58.531Z,23.10
2023-03-20T16:37:37.478Z,22.70
2023-03-20T16:40:11.732Z,22.20
2023-03-20T16:42:38.699Z,21.70
2023-03-20T16:45:15.459Z,21.10
2023-03-20T16:47:43.425Z,20.50
2023-03-20T16:50:20.117Z,19.80
2023-03-20T16:52:51.070Z,19.20
2023-03-20T16:55:24.215Z,18.80
2023-03-20T16:57:56.386Z,18.40
2023-03-20T17:00:33.375Z,18.10
2023-03-20T17:03:12.872Z,17.80
2023-03-20T17:05:49.529Z,17.50
2023-03-20T17:08:23.305Z,17.30
2023-03-20T17:10:55.970Z,17.10
2023-03-20T17:13:22.903Z,17.00
2023-03-20T17:15:49.986Z,16.80
2023-03-20T17:18:16.934Z,16.70
2023-03-20T17:20:43.979Z,16.50
2023-03-20T17:23:14.464Z,16.40
2023-03-20T17:25:41.460Z,16.20
2023-03-20T17:28:17.107Z,16.10
2023-03-20T17:30:46.150Z,16.00
2023-03-20T17:33:17.726Z,15.80
2023-03-20T17:35:45.128Z,15.70
2023-03-20T17:38:18.290Z,15.60
2023-03-20T17:40:45.784Z,15.50
2023-03-20T17:43:14.502Z,15.30
2023-03-20T17:45:44.740Z,15.20
2023-03-20T17:48:18.150Z,15.10
2023-03-20T17:50:45.985Z,14.90
2023-03-20T17:53:28.804Z,14.90
2023-03-20T17:55:55.850Z,14.80
2023-03-20T17:58:23.807Z,14.80
2023-03-20T18:00:52.082Z,14.70
2023-03-20T18:03:19.912Z,14.70
2023-03-20T18:05:50.391Z,14.60
2023-03-20T18:08:22.246Z,14.60
2023-03-20T18:10:51.847Z,14.60
2023-03-20T18:13:23.935Z,14.50
2023-03-20T18:15:53.580Z,14.50
2023-03-20T18:18:23.743Z,14.40
2023-03-20T18:20:52.392Z,14.30
2023-03-20T18:23:19.463Z,14.20
2023-03-20T18:25:46.401Z,14.10
2023-03-20T18:28:22.799Z,14.00
2023-03-20T18:30:51.766Z,13.90
2023-03-20T18:33:19.397Z,13.80
2023-03-20T18:35:46.895Z,13.70
2023-03-20T18:38:14.634Z,13.60
2023-03-20T18:40:44.047Z,13.50
2023-03-20T18:43:11.257Z,13.50
2023-03-20T18:45:39.749Z,13.40
2023-03-20T18:48:11.040Z,13.30
2023-03-20T18:50:47.727Z,13.20
2023-03-20T18:53:17.022Z,13.10
2023-03-20T18:55:43.995Z,13.10
2023-03-20T18:58:31.497Z,13.10
2023-03-20T19:00:59.755Z,13.10
2023-03-20T19:03:28.657Z,13.00
2023-03-20T19:05:58.058Z,13.00
2023-03-20T19:08:25.359Z,13.00
2023-03-20T19:10:52.651Z,13.00
2023-03-20T19:13:21.257Z,12.90
2023-03-20T19:15:48.496Z,12.90
2023-03-20T19:18:24.632Z,12.80
2023-03-20T19:20:53.494Z,12.80
2023-03-20T19:23:21.273Z,12.80
2023-03-20T19:25:50.542Z,12.70
2023-03-20T19:28:39.244Z,12.70
2023-03-20T19:31:09.855Z,12.60
2023-03-20T19:33:38.644Z,12.50
2023-03-20T19:36:06.818Z,12.50
2023-03-20T19:38:34.644Z,12.40
2023-03-20T19:41:03.813Z,12.40
2023-03-20T19:43:31.036Z,12.40
2023-03-20T19:45:59.363Z,12.30
2023-03-20T19:48:50.851Z,12.30
2023-03-20T19:51:18.589Z,12.20
2023-03-20T19:53:46.562Z,12.20
2023-03-20T19:56:14.914Z,12.20
2023-03-20T19:58:43.237Z,12.10
2023-03-20T20:01:24.061Z,12.10
2023-03-20T20:03:53.560Z,12.00
2023-03-20T20:06:22.664Z,12.00
2023-03-20T20:08:51.608Z,12.00
2023-03-20T20:11:20.627Z,11.90
2023-03-20T20:14:05.532Z,11.80
2023-03-20T20:16:33.462Z,11.80
2023-03-20T20:19:00.585Z,11.80
2023-03-20T20:24:16.239Z,11.70
2023-03-20T20:26:53.210Z,11.60
2023-03-20T20:29:24.902Z,11.60
2023-03-20T20:31:52.141Z,11.50
2023-03-20T20:37:51.719Z,11.50
2023-03-20T20:39:53.831Z,11.40
2023-03-20T20:42:21.478Z,11.40
2023-03-20T20:44:49.248Z,11.30
2023-03-20T20:47:17.200Z,11.30
2023-03-20T20:49:46.402Z,11.30
2023-03-20T20:52:14.074Z,11.20
2023-03-20T20:54:44.587Z,11.20
2023-03-20T20:57:12.252Z,11.10
2023-03-20T20:59:41.177Z,11.10
2023-03-20T21:02:12.637Z,11.10
2023-03-20T21:04:42.176Z,11.00
2023-03-20T21:07:13.601Z,11.00
2023-03-20T21:09:41.026Z,10.90
2023-03-20T21:12:10.495Z,10.90
2023-03-20T21:14:38.623Z,10.90
2023-03-20T21:17:06.490Z,10.90
2023-03-20T21:19:37.256Z,10.80
2023-03-20T21:22:06.178Z,10.80
2023-03-20T21:24:35.182Z,10.80
2023-03-20T21:27:13.847Z,10.70
2023-03-20T21:29:42.102Z,10.70
2023-03-20T21:32:11.021Z,10.70
2023-03-20T21:34:38.928Z,10.60
2023-03-20T21:38:04.050Z,10.60
2023-03-20T21:39:53.748Z,10.60
2023-03-20T21:42:21.403Z,10.60
2023-03-20T21:50:51.148Z,10.60
2023-03-20T21:54:20.380Z,10.60
2023-03-20T21:59:36.980Z,10.70
2023-03-20T22:02:07.802Z,10.70
2023-03-20T22:07:44.987Z,10.80
2023-03-20T22:10:46.111Z,10.90
2023-03-20T22:16:11.531Z,11.00
2023-03-20T22:21:48.295Z,11.10
2023-03-20T22:35:51.656Z,11.00
2023-03-20T22:44:33.935Z,10.90
2023-03-20T22:46:43.955Z,10.80
2023-03-20T22:49:00.744Z,10.70
2023-03-20T22:51:34.077Z,10.60
2023-03-20T22:54:03.357Z,10.50
2023-03-20T22:56:30.437Z,10.40
2023-03-20T22:58:57.277Z,10.40
2023-03-20T23:01:24.514Z,10.30
2023-03-20T23:03:51.456Z,10.20
2023-03-20T23:06:22.656Z,10.10
2023-03-20T23:08:55.511Z,10.00
2023-03-20T23:11:25.212Z,10.00
2023-03-20T23:13:52.378Z,9.90
2023-03-20T23:16:20.158Z,9.90
2023-03-20T23:18:47.178Z,9.90
2023-03-20T23:21:14.194Z,9.80
2023-03-20T23:23:41.103Z,9.80
2023-03-20T23:26:16.592Z,9.80
2023-03-20T23:28:46.518Z,9.80
2023-03-20T23:31:23.169Z,9.80
2023-03-20T23:33:54.099Z,9.70
2023-03-20T23:36:35.486Z,9.70
2023-03-20T23:39:06.251Z,9.70
2023-03-20T23:44:21.067Z,9.60
2023-03-20T23:46:48.410Z,9.60
2023-03-20T23:49:16.619Z,9.60
2023-03-20T23:51:43.621Z,9.60
2023-03-20T23:54:11.248Z,9.50
2023-03-20T23:56:38.200Z,9.50
2023-03-20T23:59:18.690Z,9.40
